Time;durP1;ratioP1;P1;durP2;ratioP2;P2;SDS_P1;SDS_P2;PMS_P1;PMS_P2;Temp;Humidity;BMP_temperature;BMP_pressure;BME280_temperature;BME280_humidity;BME280_pressure;Samples;Min_cycle;Max_cycle;Signal;HPM_P1;HPM_P2
2022/11/05 00:09:39;;;;;;;43.40;18.13;;;;;;;10.94;68.28;93547.03;5044837;28;20132;-77
2022/11/05 00:17:39;;;;;;;40.25;19.00;;;;;;;10.99;68.48;93547.66;5044652;28;20071;-78
2022/11/05 00:20:07;;;;;;;35.00;18.77;;;;;;;11.03;68.42;93543.22;5044478;28;20051;-78
2022/11/05 00:25:17;;;;;;;42.42;19.42;;;;;;;11.09;68.02;93538.47;5044496;28;20108;-78
2022/11/05 00:27:47;;;;;;;33.03;17.98;;;;;;;11.08;68.19;93520.13;5044587;28;20064;-78
2022/11/05 00:30:24;;;;;;;38.10;19.67;;;;;;;11.11;68.27;93530.16;5044391;28;20057;-77
2022/11/05 00:32:50;;;;;;;43.60;18.38;;;;;;;11.05;68.20;93513.53;5044115;28;20022;-78
2022/11/05 00:35:18;;;;;;;42.40;19.08;;;;;;;11.07;68.24;93523.91;5043852;28;20049;-77
2022/11/05 00:37:43;;;;;;;36.45;18.65;;;;;;;11.10;68.15;93518.69;5044291;28;20028;-78
2022/11/05 00:40:10;;;;;;;46.97;19.45;;;;;;;11.14;67.98;93516.19;5044323;28;20017;-77
2022/11/05 00:45:21;;;;;;;36.05;18.00;;;;;;;11.20;67.34;93520.22;5044142;28;20092;-78
2022/11/05 00:50:31;;;;;;;38.47;18.45;;;;;;;11.20;67.41;93504.22;5043665;28;20028;-78
2022/11/05 00:52:59;;;;;;;41.97;18.38;;;;;;;11.24;67.12;93497.88;5043786;28;20017;-77
2022/11/05 00:55:27;;;;;;;30.23;14.15;;;;;;;11.24;66.79;93505.13;5043897;28;20029;-77
2022/11/05 00:57:53;;;;;;;32.70;15.13;;;;;;;11.23;66.36;93501.69;5043566;28;20224;-77
2022/11/05 01:00:18;;;;;;;42.97;17.30;;;;;;;11.23;66.55;93507.00;5043704;28;20072;-78
2022/11/05 01:02:44;;;;;;;39.67;17.60;;;;;;;11.18;66.75;93495.75;5043554;28;20021;-78
2022/11/05 01:05:10;;;;;;;30.05;15.43;;;;;;;11.14;66.62;93497.50;5043730;28;20048;-78
2022/11/05 01:07:35;;;;;;;33.83;17.40;;;;;;;11.14;66.69;93498.28;5043326;28;20025;-77
2022/11/05 01:10:01;;;;;;;36.78;17.05;;;;;;;11.18;66.95;93487.75;5043495;28;20021;-77
2022/11/05 01:12:26;;;;;;;33.03;16.02;;;;;;;11.18;66.98;93498.41;5042439;28;20092;-78
2022/11/05 01:14:52;;;;;;;37.05;18.45;;;;;;;11.20;67.15;93496.97;5043295;28;20342;-78
2022/11/05 01:17:17;;;;;;;39.53;17.83;;;;;;;11.20;67.26;93501.53;5043227;28;20071;-77
2022/11/05 01:19:43;;;;;;;36.83;17.90;;;;;;;11.18;67.39;93509.09;5043494;28;20021;-78
2022/11/05 01:22:08;;;;;;;42.63;18.30;;;;;;;11.11;67.49;93506.13;5043637;28;20033;-78
2022/11/05 01:24:34;;;;;;;37.55;17.60;;;;;;;11.09;67.69;93490.44;5043294;28;20025;-78
2022/11/05 01:26:59;;;;;;;30.98;17.08;;;;;;;11.15;67.61;93485.72;5043113;28;20025;-77
2022/11/05 01:29:25;;;;;;;37.17;17.98;;;;;;;11.13;67.52;93486.03;5043160;28;20081;-77
2022/11/05 01:31:50;;;;;;;29.38;16.52;;;;;;;11.16;67.60;93479.28;5043184;28;20032;-77
2022/11/05 01:34:15;;;;;;;36.65;17.15;;;;;;;11.14;67.65;93454.81;5042996;28;20044;-77
2022/11/05 01:36:41;;;;;;;35.83;17.90;;;;;;;11.08;67.68;93464.91;5043228;28;20107;-77
2022/11/05 01:39:06;;;;;;;38.63;19.85;;;;;;;11.03;67.88;93462.41;5043185;28;20017;-77
2022/11/05 01:41:32;;;;;;;37.88;18.08;;;;;;;10.98;67.99;93444.72;5042950;28;20048;-77
2022/11/05 01:43:58;;;;;;;32.83;16.83;;;;;;;10.98;67.73;93450.06;5043032;28;20036;-78
2022/11/05 01:46:44;;;;;;;33.50;16.10;;;;;;;10.98;67.63;93450.06;5043035;28;20123;-77
2022/11/05 01:49:28;;;;;;;30.00;16.13;;;;;;;11.00;67.80;93457.75;5042947;28;20041;-78
2022/11/05 01:51:54;;;;;;;34.30;16.52;;;;;;;10.92;67.81;93455.94;5042717;28;20047;-77
2022/11/05 01:54:25;;;;;;;38.75;18.10;;;;;;;10.89;67.90;93441.38;5042905;28;20021;-77
2022/11/05 01:56:57;;;;;;;29.48;16.95;;;;;;;10.90;67.97;93442.91;5042860;28;20021;-77
2022/11/05 01:59:25;;;;;;;30.77;16.00;;;;;;;10.90;67.80;93450.91;5042727;28;20017;-78
2022/11/05 02:01:53;;;;;;;33.88;16.17;;;;;;;10.80;68.14;93435.31;5042752;28;20044;-78
2022/11/05 02:04:49;;;;;;;33.72;18.00;;;;;;;10.79;68.20;93441.75;5042167;28;20025;-77
2022/11/05 02:07:16;;;;;;;27.50;15.98;;;;;;;10.69;68.48;93439.47;5042088;28;20047;-77
2022/11/05 02:09:48;;;;;;;32.25;16.65;;;;;;;10.61;68.99;93438.41;5042760;28;20029;-78
2022/11/05 02:12:14;;;;;;;32.15;16.52;;;;;;;10.54;69.28;93438.94;5042360;28;20225;-78
2022/11/05 02:14:39;;;;;;;32.08;18.55;;;;;;;10.43;70.13;93441.16;5042723;28;20036;-77
2022/11/05 02:17:25;;;;;;;39.58;17.38;;;;;;;10.38;70.01;93446.69;5042725;28;20053;-77
2022/11/05 02:20:11;;;;;;;32.22;15.75;;;;;;;10.33;70.37;93441.53;5042679;28;20022;-77
2022/11/05 02:22:52;;;;;;;36.97;16.98;;;;;;;10.32;70.39;93431.19;5042668;28;20072;-77
2022/11/05 02:25:59;;;;;;;34.50;18.80;;;;;;;10.37;70.22;93441.66;5042397;28;20025;-77
2022/11/05 02:28:55;;;;;;;33.08;17.98;;;;;;;10.35;70.53;93430.56;5042655;28;20045;-77
2022/11/05 02:31:38;;;;;;;42.05;17.40;;;;;;;10.38;70.46;93432.56;5042512;28;20056;-77
2022/11/05 02:34:19;;;;;;;36.50;17.73;;;;;;;10.40;70.24;93441.00;5042270;28;20051;-77
2022/11/05 02:36:54;;;;;;;42.20;19.80;;;;;;;10.41;70.35;93435.38;5042247;28;20025;-77
2022/11/05 02:39:46;;;;;;;36.95;17.48;;;;;;;10.41;70.34;93429.28;5042386;28;20018;-78
2022/11/05 02:42:43;;;;;;;36.97;19.00;;;;;;;10.43;70.09;93422.50;5042442;28;20026;-77
2022/11/05 02:45:22;;;;;;;38.85;18.38;;;;;;;10.40;70.25;93433.03;5042411;28;20029;-77
2022/11/05 02:47:56;;;;;;;41.22;19.83;;;;;;;10.44;69.98;93439.25;5042192;28;20067;-77
2022/11/05 02:50:53;;;;;;;39.85;17.88;;;;;;;10.43;69.98;93440.38;5042273;28;20029;-77
2022/11/05 02:53:23;;;;;;;32.80;16.92;;;;;;;10.42;69.92;93436.13;5041883;28;20033;-77
2022/11/05 02:56:17;;;;;;;35.50;17.48;;;;;;;10.40;69.73;93433.03;5041994;28;20093;-78
2022/11/05 02:58:43;;;;;;;34.58;16.67;;;;;;;10.42;69.61;93433.47;5038471;28;20057;-78
2022/11/05 03:01:10;;;;;;;34.13;17.45;;;;;;;10.43;69.40;93440.38;5042044;28;20112;-78
2022/11/05 03:03:42;;;;;;;29.75;14.60;;;;;;;10.43;69.21;93448.38;5042070;28;20224;-77
2022/11/05 03:06:25;;;;;;;33.07;15.43;;;;;;;10.41;69.20;93445.25;5042252;28;20025;-77
2022/11/05 03:09:06;;;;;;;26.00;14.95;;;;;;;10.42;68.88;93444.13;5041984;28;20265;-78
2022/11/05 03:11:38;;;;;;;26.67;13.43;;;;;;;10.43;68.48;93437.72;5042084;28;20223;-77
2022/11/05 03:14:03;;;;;;;30.17;13.10;;;;;;;10.42;68.42;93436.13;5042193;28;20457;-77
2022/11/05 03:16:37;;;;;;;26.52;13.10;;;;;;;10.41;67.94;93439.91;5043921;28;20361;-77
2022/11/05 03:19:19;;;;;;;28.65;14.00;;;;;;;10.32;68.14;93444.50;5045732;28;20239;-77
2022/11/05 03:22:03;;;;;;;31.85;15.18;;;;;;;10.31;68.30;93440.28;5045580;28;20017;-77
2022/11/05 03:24:33;;;;;;;30.33;13.95;;;;;;;10.28;68.29;93441.69;5045731;28;20184;-77
2022/11/05 03:27:07;;;;;;;35.65;14.63;;;;;;;10.31;68.38;93446.38;5045617;28;20256;-77
2022/11/05 03:29:40;;;;;;;32.28;15.02;;;;;;;10.34;68.38;93439.63;5045493;28;20267;-77
2022/11/05 03:32:09;;;;;;;27.52;13.10;;;;;;;10.37;68.66;93450.44;5045566;28;20268;-77
2022/11/05 03:34:40;;;;;;;31.35;14.93;;;;;;;10.40;68.11;93463.13;5045063;28;20049;-77
2022/11/05 03:37:07;;;;;;;29.43;15.43;;;;;;;10.38;68.57;93461.88;5045371;28;20025;-77
2022/11/05 03:39:37;;;;;;;35.05;14.55;;;;;;;10.38;69.20;93462.66;5045286;28;20021;-77
2022/11/05 03:42:06;;;;;;;32.72;16.63;;;;;;;10.38;69.28;93475.19;5045096;28;20088;-78
2022/11/05 03:44:35;;;;;;;31.20;16.08;;;;;;;10.43;69.30;93472.34;5045265;28;20037;-77
2022/11/05 03:47:05;;;;;;;48.83;18.25;;;;;;;10.36;69.68;93470.19;5045043;28;20021;-77
2022/11/05 03:49:53;;;;;;;37.55;18.10;;;;;;;10.33;69.91;93475.38;5044900;28;20379;-77
2022/11/05 03:52:23;;;;;;;37.42;17.08;;;;;;;10.31;70.26;93480.25;5044888;28;20026;-77
2022/11/05 03:54:49;;;;;;;30.63;16.58;;;;;;;10.32;70.06;93489.78;5044988;28;20033;-77
2022/11/05 03:57:28;;;;;;;37.35;17.75;;;;;;;10.31;69.79;93491.69;5044883;28;20025;-77
2022/11/05 03:59:53;;;;;;;36.45;16.58;;;;;;;10.34;69.66;93490.25;5045098;28;20024;-78
2022/11/05 04:02:22;;;;;;;36.28;18.48;;;;;;;10.38;69.53;93489.31;5044612;28;20090;-78
2022/11/05 04:04:47;;;;;;;27.17;15.70;;;;;;;10.40;69.28;93497.75;5044775;28;20052;-78
2022/11/05 04:15:26;;;;;;;27.55;11.45;;;;;;;10.35;68.43;93489.16;5044658;28;20081;-77
2022/11/05 04:17:51;;;;;;;27.48;12.35;;;;;;;10.37;68.41;93470.97;5044773;28;20033;-77
2022/11/05 04:25:49;;;;;;;23.52;12.40;;;;;;;10.33;68.16;93492.13;5044592;28;20071;-78
2022/11/05 04:28:15;;;;;;;24.23;12.90;;;;;;;10.34;68.43;93496.38;5042671;28;20035;-77
2022/11/05 04:30:43;;;;;;;28.50;12.13;;;;;;;10.36;68.49;93496.84;5044494;28;20049;-77
2022/11/05 04:33:10;;;;;;;26.33;10.73;;;;;;;10.38;68.27;93505.28;5044168;28;20224;-77
2022/11/05 04:35:43;;;;;;;24.45;11.40;;;;;;;10.39;67.80;93495.41;5044405;28;20043;-78
2022/11/05 04:38:14;;;;;;;19.90;10.52;;;;;;;10.37;67.52;93503.72;5044552;28;20255;-78
2022/11/05 04:40:41;;;;;;;22.90;11.63;;;;;;;10.41;67.64;93509.19;5044375;28;20200;-78
2022/11/05 04:43:07;;;;;;;28.75;11.95;;;;;;;10.41;67.66;93509.97;5044110;28;20041;-78
2022/11/05 04:45:34;;;;;;;33.05;13.20;;;;;;;10.44;67.46;93508.53;5043797;28;20064;-77
2022/11/05 04:48:03;;;;;;;27.67;13.32;;;;;;;10.43;67.51;93507.75;5044184;28;20051;-77
2022/11/05 04:50:29;;;;;;;38.80;12.80;;;;;;;10.47;67.74;93518.56;5044005;28;20047;-78
2022/11/05 04:52:55;;;;;;;26.13;12.75;;;;;;;10.50;67.45;93511.81;5044006;28;20025;-78
2022/11/05 04:55:21;;;;;;;22.48;11.50;;;;;;;10.52;67.38;93506.94;5043651;28;20025;-78
2022/11/05 04:57:48;;;;;;;24.83;12.75;;;;;;;10.55;67.25;93506.31;5043851;28;20357;-78
2022/11/05 05:00:15;;;;;;;29.60;12.38;;;;;;;10.57;67.14;93502.22;5043899;28;20045;-78
2022/11/05 05:02:40;;;;;;;24.75;11.10;;;;;;;10.58;66.95;93503.00;5043756;28;20029;-77
2022/11/05 05:05:06;;;;;;;24.38;12.52;;;;;;;10.60;66.94;93503.47;5043811;28;20089;-78
2022/11/05 05:07:33;;;;;;;28.33;13.50;;;;;;;10.60;67.09;93506.91;5043785;28;20219;-78
2022/11/05 05:09:59;;;;;;;32.00;13.80;;;;;;;10.63;67.22;93510.81;5043522;28;20045;-78
2022/11/05 05:12:25;;;;;;;26.55;12.45;;;;;;;10.64;67.10;93510.50;5043527;28;20027;-78
2022/11/05 05:14:50;;;;;;;23.95;11.68;;;;;;;10.64;67.14;93501.72;5043549;28;20339;-78
2022/11/05 05:17:16;;;;;;;24.02;12.48;;;;;;;10.67;67.25;93503.75;5043464;28;20027;-78
2022/11/05 05:22:26;;;;;;;25.73;11.43;;;;;;;10.70;67.53;93523.63;5043466;28;20071;-78
2022/11/05 05:24:51;;;;;;;26.45;11.93;;;;;;;10.73;67.59;93531.00;5043316;28;20021;-78
2022/11/05 05:27:17;;;;;;;25.45;12.32;;;;;;;10.75;67.58;93526.13;5043200;28;20100;-78
2022/11/05 05:29:42;;;;;;;26.27;12.02;;;;;;;10.76;67.16;93533.00;5043556;28;20105;-78
2022/11/05 05:32:08;;;;;;;19.85;10.55;;;;;;;10.78;67.28;93538.81;5043168;28;20110;-78
2022/11/05 05:34:33;;;;;;;23.17;12.27;;;;;;;10.75;67.09;93542.91;5042001;28;20081;-78
2022/11/05 05:36:59;;;;;;;27.45;12.45;;;;;;;10.77;67.18;93551.38;5043244;28;20044;-78
2022/11/05 05:39:25;;;;;;;30.15;13.00;;;;;;;10.74;67.20;93559.97;5042299;28;20013;-78
2022/11/05 05:41:51;;;;;;;29.10;14.30;;;;;;;10.75;67.21;93560.78;5042953;28;20025;-78
2022/11/05 05:44:16;;;;;;;30.58;14.13;;;;;;;10.79;67.14;93569.72;5042947;28;20096;-78
2022/11/05 05:46:42;;;;;;;25.30;12.98;;;;;;;10.81;67.20;93564.84;5043098;28;20021;-78
2022/11/05 05:49:09;;;;;;;31.02;14.70;;;;;;;10.85;66.88;93563.09;5042885;28;20021;-79
2022/11/05 05:51:35;;;;;;;30.95;16.40;;;;;;;10.88;67.27;93564.31;5043069;28;20036;-78
2022/11/05 05:54:00;;;;;;;31.98;14.32;;;;;;;10.92;67.44;93566.03;5042888;28;20323;-78
2022/11/05 05:56:26;;;;;;;33.92;14.32;;;;;;;10.97;67.37;93565.03;5042734;28;20021;-78
2022/11/05 05:58:53;;;;;;;25.63;14.27;;;;;;;11.03;67.57;93566.44;5043037;28;20025;-78
2022/11/05 06:01:19;;;;;;;42.25;19.05;;;;;;;11.09;67.32;93575.81;5042809;28;20252;-78
2022/11/05 06:03:44;;;;;;;37.95;16.85;;;;;;;11.16;67.63;93567.31;5042729;28;20082;-78
2022/11/05 06:06:12;;;;;;;35.45;18.35;;;;;;;11.27;67.64;93555.16;5042879;28;20021;-78
2022/11/05 06:08:38;;;;;;;34.15;17.58;;;;;;;11.36;67.57;93566.56;5042538;28;20022;-78
2022/11/05 06:11:04;;;;;;;35.38;18.10;;;;;;;11.45;67.49;93561.91;5042703;28;20037;-78
2022/11/05 06:13:30;;;;;;;29.77;17.13;;;;;;;11.55;67.46;93559.97;5042560;28;20025;-79
2022/11/05 06:16:07;;;;;;;39.72;18.10;;;;;;;11.63;67.91;93561.81;5042725;28;20044;-78
2022/11/05 06:18:33;;;;;;;44.78;19.38;;;;;;;11.69;67.43;93555.16;5042624;28;20029;-78
2022/11/05 06:21:03;;;;;;;37.75;18.05;;;;;;;11.77;67.33;93566.88;5042461;28;20265;-79
2022/11/05 06:23:30;;;;;;;41.60;19.67;;;;;;;11.82;67.08;93558.66;5042617;28;20048;-78
2022/11/05 06:25:59;;;;;;;43.22;21.40;;;;;;;11.91;66.81;93555.94;5042603;28;20029;-78
2022/11/05 06:28:24;;;;;;;36.03;19.25;;;;;;;12.01;66.47;93567.00;5042328;28;20021;-78
2022/11/05 06:30:50;;;;;;;35.53;18.92;;;;;;;12.11;66.39;93560.47;5042607;28;20028;-78
2022/11/05 06:33:16;;;;;;;38.47;20.52;;;;;;;12.16;66.12;93554.13;5042466;28;20068;-79
2022/11/05 06:35:41;;;;;;;38.75;20.45;;;;;;;12.24;65.89;93555.94;5042477;28;20223;-79
2022/11/05 06:38:07;;;;;;;38.97;18.50;;;;;;;12.32;65.52;93559.63;5042320;28;20017;-78
2022/11/05 06:40:32;;;;;;;40.47;20.08;;;;;;;12.41;64.70;93552.28;5041314;28;20100;-78
2022/11/05 06:42:58;;;;;;;42.08;20.27;;;;;;;12.47;64.52;93550.97;5042177;28;20135;-78
2022/11/05 06:45:23;;;;;;;38.38;18.80;;;;;;;12.55;64.23;93546.63;5042350;28;20067;-79
2022/11/05 06:47:54;;;;;;;36.08;20.38;;;;;;;12.65;64.53;93546.19;5042411;28;20050;-79
2022/11/05 06:50:20;;;;;;;45.65;19.05;;;;;;;12.69;64.22;93552.44;5042569;28;20053;-80
2022/11/05 06:52:52;;;;;;;46.67;20.75;;;;;;;12.80;63.27;93553.56;5046311;28;20022;-79
2022/11/05 06:55:18;;;;;;;41.70;20.60;;;;;;;12.85;63.41;93553.34;5046122;28;20018;-79
2022/11/05 06:57:43;;;;;;;40.78;21.40;;;;;;;12.93;63.83;93546.31;5046602;28;20059;-80
2022/11/05 07:00:09;;;;;;;44.63;20.67;;;;;;;13.03;63.79;93537.06;5046481;28;20084;-79
2022/11/05 07:02:35;;;;;;;47.67;21.48;;;;;;;13.12;63.82;93527.00;5044978;28;20271;-79
2022/11/05 07:05:00;;;;;;;40.92;21.92;;;;;;;13.25;63.45;93528.56;5045826;28;20028;-79
2022/11/05 07:07:25;;;;;;;38.08;20.45;;;;;;;13.36;62.61;93531.56;5046208;28;20029;-79
2022/11/05 07:09:51;;;;;;;39.55;18.17;;;;;;;13.42;61.66;93538.25;5045921;28;20017;-80
2022/11/05 07:12:17;;;;;;;35.90;17.58;;;;;;;13.51;61.22;93529.31;5045812;28;20025;-80
2022/11/05 07:14:42;;;;;;;30.95;17.00;;;;;;;13.58;61.03;93524.94;5045902;28;20017;-79
2022/11/05 07:17:08;;;;;;;47.53;18.10;;;;;;;13.72;60.65;93534.47;5045793;28;20024;-79
2022/11/05 07:19:33;;;;;;;43.55;19.17;;;;;;;13.84;60.44;93526.44;5045655;28;20032;-79
2022/11/05 07:21:59;;;;;;;36.58;17.10;;;;;;;13.95;59.95;93538.19;5045598;28;20053;-78
2022/11/05 07:24:24;;;;;;;32.95;16.98;;;;;;;14.09;59.34;93527.09;5045518;28;20181;-79
2022/11/05 07:26:50;;;;;;;32.28;16.35;;;;;;;14.17;59.25;93531.50;5045631;28;20025;-79
2022/11/05 07:29:15;;;;;;;39.20;17.15;;;;;;;14.24;59.16;93534.38;5045625;28;20084;-79
2022/11/05 07:31:40;;;;;;;37.28;16.33;;;;;;;14.42;58.68;93528.69;5045718;28;20092;-78
2022/11/05 07:34:06;;;;;;;40.85;16.70;;;;;;;14.57;57.71;93522.59;5044110;28;20039;-79
2022/11/05 07:36:32;;;;;;;33.60;16.10;;;;;;;14.71;57.25;93524.81;5045582;28;20029;-79
2022/11/05 07:38:57;;;;;;;34.15;16.05;;;;;;;14.82;57.37;93517.81;5045468;28;20028;-79
2022/11/05 07:41:22;;;;;;;29.33;15.40;;;;;;;14.94;56.79;93514.25;5045246;28;20028;-78
2022/11/05 07:43:48;;;;;;;33.35;16.08;;;;;;;15.02;56.55;93515.97;5045280;28;20029;-79
2022/11/05 07:46:13;;;;;;;37.20;14.80;;;;;;;15.16;56.69;93517.41;5045395;28;20034;-79
2022/11/05 07:48:39;;;;;;;35.40;14.75;;;;;;;15.32;56.13;93518.16;5045311;28;20024;-79
2022/11/05 07:51:04;;;;;;;26.95;15.38;;;;;;;15.31;54.97;93511.25;5045195;28;20255;-79
2022/11/05 07:53:30;;;;;;;30.40;15.70;;;;;;;15.37;55.09;93515.22;5045302;28;20044;-79
2022/11/05 07:55:57;;;;;;;31.20;14.07;;;;;;;15.50;55.20;93498.97;5045239;28;20041;-79
2022/11/05 07:58:23;;;;;;;31.08;14.02;;;;;;;15.68;54.71;93499.34;5045118;28;20024;-79
2022/11/05 08:00:48;;;;;;;31.85;14.45;;;;;;;15.86;54.23;93502.41;5045004;28;20093;-79
2022/11/05 08:03:15;;;;;;;29.88;16.67;;;;;;;16.03;53.36;93507.31;5043813;28;20025;-79
2022/11/05 08:05:44;;;;;;;31.92;14.73;;;;;;;16.16;53.33;93506.03;5045238;28;20251;-79
2022/11/05 08:08:12;;;;;;;28.60;13.95;;;;;;;16.32;53.25;93497.09;5045187;28;20029;-79
2022/11/05 08:10:38;;;;;;;26.48;14.65;;;;;;;16.40;52.86;93493.38;5044709;28;20025;-79
2022/11/05 08:13:05;;;;;;;25.90;14.05;;;;;;;16.55;52.17;93489.81;5044717;28;20104;-79
2022/11/05 08:15:30;;;;;;;25.55;13.88;;;;;;;16.62;52.00;93500.66;5044748;28;20021;-80
2022/11/05 08:18:04;;;;;;;39.80;15.57;;;;;;;16.72;51.69;93506.59;5044706;28;20172;-79
2022/11/05 08:20:30;;;;;;;28.02;12.82;;;;;;;16.85;51.08;93499.91;5044782;28;20056;-79
2022/11/05 08:22:56;;;;;;;29.00;15.00;;;;;;;16.96;50.62;93503.53;5044508;28;20033;-80
2022/11/05 08:25:22;;;;;;;28.42;15.38;;;;;;;17.04;50.18;93494.44;5044534;28;20319;-79
2022/11/05 08:27:54;;;;;;;31.98;15.05;;;;;;;17.10;50.29;93505.69;5044324;28;20021;-80
2022/11/05 08:30:19;;;;;;;;;;;;;;;17.17;49.61;93499.59;5044918;28;20025;-80
2022/11/05 08:32:45;;;;;;;27.83;12.50;;;;;;;17.23;49.39;93495.47;5044521;28;20242;-79
2022/11/05 08:35:10;;;;;;;27.58;14.15;;;;;;;17.31;49.04;93499.81;5044283;28;20045;-80
2022/11/05 08:37:36;;;;;;;34.22;15.82;;;;;;;17.31;49.25;93493.66;5044419;28;20326;-79
2022/11/05 08:40:01;;;;;;;28.00;13.15;;;;;;;17.41;49.25;93499.19;5044320;28;20032;-80
2022/11/05 08:42:27;;;;;;;26.95;14.05;;;;;;;17.56;48.76;93497.44;5044217;28;20335;-80
2022/11/05 08:44:52;;;;;;;41.28;14.32;;;;;;;17.64;48.10;93492.91;5044072;28;20021;-79
2022/11/05 08:47:17;;;;;;;33.22;15.60;;;;;;;17.67;48.38;93489.50;5044161;28;20017;-79
2022/11/05 08:49:43;;;;;;;37.28;15.50;;;;;;;17.61;48.77;93494.44;5044330;28;20034;-80
2022/11/05 08:52:08;;;;;;;33.88;16.83;;;;;;;17.50;48.39;93482.72;5044022;28;20025;-79
2022/11/05 08:54:34;;;;;;;25.90;15.40;;;;;;;17.57;48.53;93487.44;5043923;28;20044;-80
2022/11/05 08:56:59;;;;;;;33.17;15.80;;;;;;;17.60;48.31;93489.41;5043995;28;20021;-80
2022/11/05 08:59:25;;;;;;;32.05;16.92;;;;;;;17.62;48.50;93481.72;5044005;28;20013;-80
2022/11/05 09:01:51;;;;;;;33.08;16.20;;;;;;;17.73;47.98;93487.28;5044020;28;20118;-80
2022/11/05 09:04:17;;;;;;;40.28;17.42;;;;;;;17.68;47.94;93493.75;5043650;28;20025;-79
2022/11/05 09:06:42;;;;;;;30.30;16.58;;;;;;;17.71;48.02;93482.25;5042731;28;20068;-80
2022/11/05 09:09:08;;;;;;;30.77;16.02;;;;;;;17.73;47.24;93481.88;5043804;28;20088;-80
2022/11/05 09:11:34;;;;;;;28.40;16.27;;;;;;;17.60;46.99;93484.78;5043666;28;20029;-80
2022/11/05 09:13:59;;;;;;;34.47;17.95;;;;;;;17.37;47.57;93484.13;5043353;28;20029;-79
2022/11/05 09:16:25;;;;;;;36.22;17.17;;;;;;;17.37;48.33;93489.50;5042395;28;20164;-80
2022/11/05 09:18:51;;;;;;;31.85;15.98;;;;;;;17.31;47.94;93490.97;5042379;28;20021;-79
2022/11/05 09:21:18;;;;;;;35.53;16.40;;;;;;;17.27;48.08;93487.44;5042205;28;20201;-78
2022/11/05 09:23:44;;;;;;;30.88;15.13;;;;;;;17.17;47.84;93491.53;5043381;28;20220;-79
2022/11/05 09:26:11;;;;;;;30.08;16.38;;;;;;;17.26;48.01;93481.28;5043502;28;20376;-79
2022/11/05 09:28:37;;;;;;;51.55;17.65;;;;;;;17.37;48.21;93484.13;5043285;28;20075;-79
2022/11/05 09:31:07;;;;;;;33.15;14.55;;;;;;;17.50;47.73;93488.13;5043132;28;20302;-79
2022/11/05 09:33:34;;;;;;;33.80;15.73;;;;;;;17.60;47.92;93478.63;5043136;28;20064;-79
2022/11/05 09:36:00;;;;;;;27.83;15.05;;;;;;;17.70;47.11;93472.59;5043445;28;20021;-80
2022/11/05 09:38:25;;;;;;;28.83;14.73;;;;;;;17.78;47.02;93476.91;5043035;28;20021;-80
2022/11/05 09:40:54;;;;;;;32.13;16.92;;;;;;;17.86;46.46;93482.44;5043357;28;21390;-80
2022/11/05 09:43:23;;;;;;;27.20;14.27;;;;;;;17.79;45.90;93483.09;5043081;28;20308;-80
2022/11/05 09:45:52;;;;;;;33.80;14.40;;;;;;;17.81;45.87;93484.28;5042737;28;20025;-80
2022/11/05 09:48:23;;;;;;;29.40;14.93;;;;;;;17.86;45.82;93474.34;5043024;28;20021;-80
2022/11/05 09:50:51;;;;;;;29.05;14.63;;;;;;;17.88;46.36;93467.44;5043012;28;20108;-80
2022/11/05 09:53:19;;;;;;;35.63;14.48;;;;;;;17.98;45.51;93463.31;5042823;28;20220;-80
2022/11/05 09:55:48;;;;;;;37.28;15.00;;;;;;;17.96;45.44;93471.00;5042624;28;20059;-79
2022/11/05 09:58:22;;;;;;;32.08;15.35;;;;;;;17.87;45.26;93473.19;5043052;28;20025;-79
2022/11/05 10:00:51;;;;;;;40.00;15.73;;;;;;;17.83;45.46;93463.16;5043023;28;20026;-79
2022/11/05 10:03:22;;;;;;;35.88;16.38;;;;;;;17.72;46.00;93467.59;5042725;28;20052;-80
2022/11/05 10:05:50;;;;;;;29.47;15.47;;;;;;;17.61;46.92;93461.31;5042934;28;20036;-79
2022/11/05 10:08:23;;;;;;;32.22;15.20;;;;;;;17.64;46.43;93460.56;5042730;28;20272;-80
2022/11/05 10:10:51;;;;;;;37.88;15.85;;;;;;;17.57;46.75;93465.91;5042788;28;20033;-79
2022/11/05 10:13:46;;;;;;;28.50;15.75;;;;;;;17.59;46.65;93460.91;5042634;28;20037;-79
2022/11/05 10:16:20;;;;;;;32.92;16.55;;;;;;;17.60;47.31;93457.06;5042083;28;20053;-79
2022/11/05 10:19:24;;;;;;;38.85;16.10;;;;;;;17.71;47.01;93459.88;5042610;28;20197;-80
2022/11/05 10:21:59;;;;;;;39.17;16.23;;;;;;;17.76;47.31;93457.63;5042804;28;20048;-79
2022/11/05 10:24:26;;;;;;;34.55;15.60;;;;;;;17.84;46.61;93453.91;5042694;28;20319;-80
2022/11/05 10:26:54;;;;;;;36.05;15.73;;;;;;;17.95;46.33;93458.63;5045318;28;20017;-79
2022/11/05 10:29:29;;;;;;;36.08;16.33;;;;;;;17.96;45.35;93452.88;5046701;28;20029;-80
2022/11/05 10:31:57;;;;;;;33.00;16.25;;;;;;;17.99;45.55;93459.44;5046794;28;20024;-80
2022/11/05 10:34:30;;;;;;;40.30;15.45;;;;;;;17.95;45.30;93462.13;5046405;28;20045;-79
2022/11/05 10:36:55;;;;;;;33.60;14.32;;;;;;;17.89;45.94;93449.31;5046627;28;20021;-80
2022/11/05 10:39:23;;;;;;;34.75;14.10;;;;;;;17.89;45.57;93442.03;5046408;28;20208;-79
2022/11/05 10:41:57;;;;;;;31.08;14.50;;;;;;;17.90;45.12;93443.56;5046368;28;20056;-79
2022/11/05 10:44:32;;;;;;;33.05;14.98;;;;;;;17.87;45.75;93443.53;5046450;28;20025;-80
2022/11/05 10:47:09;;;;;;;29.63;15.52;;;;;;;17.91;45.43;93442.44;5046398;28;20022;-80
2022/11/05 10:49:47;;;;;;;37.08;14.52;;;;;;;17.98;45.41;93447.91;5046277;28;20045;-79
2022/11/05 10:52:23;;;;;;;31.40;13.90;;;;;;;17.96;45.08;93444.03;5046384;28;20029;-80
2022/11/05 10:54:52;;;;;;;28.58;13.07;;;;;;;17.94;44.56;93447.09;5046393;28;20076;-79
2022/11/05 10:57:42;;;;;;;32.17;13.88;;;;;;;18.13;44.78;93439.94;5046257;28;20369;-80
2022/11/05 11:00:14;;;;;;;24.88;13.32;;;;;;;18.27;45.13;93428.53;5046113;28;20018;-77
2022/11/05 11:02:49;;;;;;;32.33;13.88;;;;;;;18.33;43.81;93430.50;5046289;28;20022;-80
2022/11/05 11:05:27;;;;;;;26.02;13.27;;;;;;;18.45;43.76;93438.31;5046104;28;20025;-78
2022/11/05 11:07:58;;;;;;;23.00;11.70;;;;;;;18.52;42.80;93417.94;5046254;28;20029;-80
2022/11/05 11:10:25;;;;;;;26.33;11.60;;;;;;;18.58;42.20;93419.13;5045860;28;20022;-85
2022/11/05 11:12:51;;;;;;;30.85;12.45;;;;;;;18.61;42.43;93421.88;5045671;28;20032;-80
2022/11/05 11:15:20;;;;;;;27.33;11.77;;;;;;;18.67;42.15;93422.31;5046120;28;20096;-81
2022/11/05 11:17:46;;;;;;;34.80;11.30;;;;;;;18.76;40.90;93424.66;5046171;28;20052;-82
2022/11/05 11:20:26;;;;;;;27.38;11.52;;;;;;;18.74;40.88;93429.66;5044912;28;20021;-81
2022/11/05 11:23:03;;;;;;;34.97;11.60;;;;;;;18.73;40.88;93420.03;5046087;28;20039;-81
2022/11/05 11:25:51;;;;;;;21.92;10.13;;;;;;;18.71;40.22;93416.94;5045717;28;20036;-81
2022/11/05 11:28:25;;;;;;;17.30;10.65;;;;;;;18.62;39.69;93417.25;5045834;28;20024;-82
2022/11/05 11:31:02;;;;;;;16.50;8.88;;;;;;;18.56;39.75;93419.53;5044209;28;20323;-80
2022/11/05 11:33:29;;;;;;;21.77;10.77;;;;;;;18.64;39.39;93423.84;5045504;28;20056;-82
2022/11/05 11:35:55;;;;;;;31.63;11.05;;;;;;;18.63;39.22;93408.78;5044345;28;20104;-80
2022/11/05 11:38:22;;;;;;;25.05;10.80;;;;;;;18.68;39.14;93417.66;5043882;28;20044;-78
2022/11/05 11:40:47;;;;;;;30.15;10.48;;;;;;;18.64;39.55;93409.53;5045433;28;20104;-79
2022/11/05 11:43:28;;;;;;;29.27;10.95;;;;;;;18.59;39.57;93415.31;5045366;28;20081;-80
2022/11/05 11:45:55;;;;;;;25.50;11.57;;;;;;;18.60;40.08;93416.84;5045313;28;20246;-79
2022/11/05 11:48:27;;;;;;;33.95;11.35;;;;;;;18.63;40.53;93422.28;5045283;28;20036;-79
2022/11/05 11:50:52;;;;;;;31.42;10.85;;;;;;;18.73;40.76;93410.00;5045293;28;20049;-79
2022/11/05 11:53:21;;;;;;;23.45;9.65;;;;;;;18.83;40.70;93412.03;5044922;28;20359;-79
2022/11/05 11:55:57;;;;;;;26.70;10.85;;;;;;;18.88;40.76;93405.50;5045058;28;20100;-79
2022/11/05 11:58:49;;;;;;;25.98;11.57;;;;;;;18.94;39.97;93404.00;5044816;28;20029;-81
2022/11/05 12:01:39;;;;;;;21.75;9.73;;;;;;;18.98;39.58;93410.19;5044887;28;20093;-81
2022/11/05 12:04:11;;;;;;;22.52;9.98;;;;;;;18.97;39.81;93405.94;5044969;28;20208;-81
2022/11/05 12:06:58;;;;;;;32.83;10.43;;;;;;;19.00;39.86;93405.19;5044794;28;20036;-78